Myrtle, Missouri
Current Conditions -  °F | °C
As of 4:55 AM on Friday 19 Dec 2014 (Local Time) from KARG Reporting Station
Overcast Overcast  
Wind Chill: 30°   Ceiling: 4200
Heat Index: 37°   Visibility: 5mi
Dew Point: 32°   Wind: 10mph
Humidity: 81%   Direction: 50°NE
Pressure: 30.23"   Gusts: NA
Location:  36.51°N, 91.27°W
Report Text: KARG 191055Z AUTO 05009KT 5SM OVC042 03/00 A3023 RMK AO1
Loading
Personal Weather Stations






























Interactive Weather Map New forecast layout! Learn more

10-Day Weather Forecast

Advertisements
Track Severe Weather on mobile